Time,TemperatureF,DewpointF,PressureIn,WindDirection,WindDirectionDegrees,WindSpeedMPH,WindSpeedGustMPH,Humidity,HourlyPrecipIn,Conditions,Clouds,dailyrainin,SolarRadiationWatts/m^2,SoftwareType,DateUTC
2013-09-27 00:00:00,46.0,46.0,-100.00,East,79,0.0,2.0,100,-99.99,,,0.00,0.000000,,2013-09-27 07:00:00,
2013-09-27 00:43:00,46.0,46.0,-100.00,East,79,0.0,2.0,100,-99.99,,,0.00,0.000000,,2013-09-27 07:43:00,
2013-09-27 00:53:00,46.0,46.0,-100.00,East,79,0.0,2.0,100,-99.99,,,0.00,0.000000,,2013-09-27 07:53:00,
2013-09-27 01:00:00,45.0,45.0,-100.00,East,94,0.0,2.0,100,-99.99,,,0.00,0.000000,,2013-09-27 08:00:00,
2013-09-27 01:42:00,45.0,45.0,-100.00,East,94,0.0,2.0,100,-99.99,,,0.00,0.000000,,2013-09-27 08:42:00,
2013-09-27 01:52:00,45.0,45.0,-100.00,East,94,0.0,2.0,100,-99.99,,,0.00,0.000000,,2013-09-27 08:52:00,
2013-09-27 02:00:00,45.0,45.0,-100.00,ESE,121,0.0,2.0,100,-99.99,,,0.00,0.000000,,2013-09-27 09:00:00,
2013-09-27 02:53:00,45.0,45.0,-100.00,ESE,121,0.0,2.0,100,-99.99,,,0.00,0.000000,,2013-09-27 09:53:00,
2013-09-27 03:00:00,44.0,44.0,-100.00,ENE,69,0.0,2.0,100,-99.99,,,0.00,0.000000,,2013-09-27 10:00:00,
2013-09-27 03:42:00,44.0,44.0,-100.00,ENE,69,0.0,2.0,100,-99.99,,,0.00,0.000000,,2013-09-27 10:42:00,
2013-09-27 03:52:00,44.0,44.0,-100.00,ENE,69,0.0,2.0,100,-99.99,,,0.00,0.000000,,2013-09-27 10:52:00,
2013-09-27 04:00:00,44.0,44.0,-100.00,ENE,78,1.0,2.0,100,-99.99,,,0.00,0.000000,,2013-09-27 11:00:00,
2013-09-27 04:43:00,44.0,44.0,-100.00,ENE,78,1.0,2.0,100,-99.99,,,0.00,0.000000,,2013-09-27 11:43:00,
2013-09-27 04:52:00,44.0,44.0,-100.00,ENE,78,1.0,2.0,100,-99.99,,,0.00,0.000000,,2013-09-27 11:52:00,
2013-09-27 05:00:00,44.0,44.0,-100.00,East,87,1.0,2.0,100,-99.99,,,0.00,0.000000,,2013-09-27 12:00:00,
2013-09-27 05:42:00,44.0,44.0,-100.00,East,87,1.0,2.0,100,-99.99,,,0.00,0.000000,,2013-09-27 12:42:00,
2013-09-27 05:52:00,44.0,44.0,-100.00,East,87,1.0,2.0,100,-99.99,,,0.00,0.000000,,2013-09-27 12:52:00,
2013-09-27 06:00:00,43.0,43.0,-100.00,ESE,116,0.0,2.0,100,-99.99,,,0.00,0.000000,,2013-09-27 13:00:00,
2013-09-27 06:42:00,43.0,43.0,-100.00,ESE,116,0.0,2.0,100,-99.99,,,0.00,0.000000,,2013-09-27 13:42:00,
2013-09-27 06:52:00,43.0,43.0,-100.00,ESE,116,0.0,2.0,100,-99.99,,,0.00,0.000000,,2013-09-27 13:52:00,
2013-09-27 07:00:00,44.0,44.0,-100.00,East,85,1.0,2.0,100,-99.99,,,0.00,0.580000,,2013-09-27 14:00:00,
2013-09-27 07:42:00,44.0,44.0,-100.00,East,85,1.0,2.0,100,-99.99,,,0.00,0.580000,,2013-09-27 14:42:00,
2013-09-27 07:52:00,44.0,44.0,-100.00,East,85,1.0,2.0,100,-99.99,,,0.00,0.580000,,2013-09-27 14:52:00,
2013-09-27 08:00:00,46.0,46.0,-100.00,ENE,68,1.0,2.0,100,-99.99,,,0.00,71.709999,,2013-09-27 15:00:00,
2013-09-27 08:44:00,46.0,46.0,-100.00,ENE,68,1.0,2.0,100,-99.99,,,0.00,71.709999,,2013-09-27 15:44:00,
2013-09-27 08:54:00,46.0,46.0,-100.00,ENE,68,1.0,2.0,100,-99.99,,,0.00,71.709999,,2013-09-27 15:54:00,
2013-09-27 09:00:00,53.0,53.0,-100.00,ESE,110,2.0,4.0,100,-99.99,,,0.00,241.970001,,2013-09-27 16:00:00,
2013-09-27 09:44:00,53.0,53.0,-100.00,ESE,110,2.0,4.0,100,-99.99,,,0.00,241.970001,,2013-09-27 16:44:00,
2013-09-27 09:53:00,53.0,53.0,-100.00,ESE,110,2.0,4.0,100,-99.99,,,0.00,241.970001,,2013-09-27 16:53:00,
2013-09-27 11:00:00,60.0,59.0,-100.00,WSW,245,1.0,5.0,97,-99.99,,,0.00,304.029999,,2013-09-27 18:00:00,
2013-09-27 11:43:00,60.0,59.0,-100.00,WSW,245,1.0,5.0,97,-99.99,,,0.00,304.029999,,2013-09-27 18:43:00,
2013-09-27 11:52:00,60.0,59.0,-100.00,WSW,245,1.0,5.0,97,-99.99,,,0.00,304.029999,,2013-09-27 18:52:00,
2013-09-27 12:00:00,60.0,55.0,-100.00,SW,225,2.0,6.0,82,-99.99,,,0.00,178.169998,,2013-09-27 19:00:00,
2013-09-27 12:42:00,60.0,55.0,-100.00,SW,225,2.0,6.0,82,-99.99,,,0.00,178.169998,,2013-09-27 19:42:00,
2013-09-27 12:53:00,60.0,55.0,-100.00,SW,225,2.0,6.0,82,-99.99,,,0.00,178.169998,,2013-09-27 19:53:00,
2013-09-27 13:00:00,61.0,56.0,-100.00,SSW,211,3.0,7.0,84,-99.99,,,0.00,317.049988,,2013-09-27 20:00:00,
2013-09-27 13:43:00,61.0,56.0,-100.00,SSW,211,3.0,7.0,84,-99.99,,,0.00,317.049988,,2013-09-27 20:43:00,
2013-09-27 13:52:00,61.0,56.0,-100.00,SSW,211,3.0,7.0,84,-99.99,,,0.00,317.049988,,2013-09-27 20:52:00,
2013-09-27 14:00:00,61.0,55.0,-100.00,SSW,206,4.0,11.0,82,-99.99,,,0.00,380.619995,,2013-09-27 21:00:00,
2013-09-27 14:44:00,61.0,55.0,-100.00,SSW,206,4.0,11.0,82,-99.99,,,0.00,380.619995,,2013-09-27 21:44:00,
2013-09-27 14:54:00,61.0,55.0,-100.00,SSW,206,4.0,11.0,82,-99.99,,,0.00,380.619995,,2013-09-27 21:54:00,
2013-09-27 15:00:00,60.0,55.0,-100.00,SSW,204,5.0,13.0,85,-99.99,,,0.00,235.690002,,2013-09-27 22:00:00,
2013-09-27 15:43:00,60.0,55.0,-100.00,SSW,204,5.0,13.0,85,-99.99,,,0.00,235.690002,,2013-09-27 22:43:00,
2013-09-27 15:53:00,60.0,55.0,-100.00,SSW,204,5.0,13.0,85,-99.99,,,0.00,235.690002,,2013-09-27 22:53:00,
2013-09-27 16:00:00,59.0,53.0,-100.00,SSW,204,4.0,12.0,79,-99.99,,,0.00,162.130005,,2013-09-27 23:00:00,
2013-09-27 16:43:00,59.0,53.0,-100.00,SSW,204,4.0,12.0,79,-99.99,,,0.00,162.130005,,2013-09-27 23:43:00,
2013-09-27 16:53:00,59.0,53.0,-100.00,SSW,204,4.0,12.0,79,-99.99,,,0.00,162.130005,,2013-09-27 23:53:00,
2013-09-27 17:00:00,59.0,53.0,-100.00,SSW,194,4.0,11.0,83,-99.99,,,0.00,83.449997,,2013-09-28 00:00:00,
2013-09-27 17:42:00,59.0,53.0,-100.00,SSW,194,4.0,11.0,83,-99.99,,,0.00,83.449997,,2013-09-28 00:42:00,
2013-09-27 17:52:00,59.0,53.0,-100.00,SSW,194,4.0,11.0,83,-99.99,,,0.00,83.449997,,2013-09-28 00:52:00,
2013-09-27 18:00:00,58.0,54.0,-100.00,SSW,196,5.0,12.0,87,-99.99,,,0.00,41.720001,,2013-09-28 01:00:00,
2013-09-27 18:52:00,58.0,54.0,-100.00,SSW,196,5.0,12.0,87,-99.99,,,0.00,41.720001,,2013-09-28 01:52:00,
2013-09-27 19:00:00,58.0,57.0,-100.00,SSW,192,5.0,10.0,97,-99.99,,,0.00,4.300000,,2013-09-28 02:00:00,
2013-09-27 19:42:00,58.0,57.0,-100.00,SSW,192,5.0,10.0,97,-99.99,,,0.00,4.300000,,2013-09-28 02:42:00,
2013-09-27 19:53:00,58.0,57.0,-100.00,SSW,192,5.0,10.0,97,-99.99,,,0.00,4.300000,,2013-09-28 02:53:00,
2013-09-27 20:00:00,60.0,59.0,-100.00,SSW,193,4.0,11.0,97,-99.99,,,0.00,0.000000,,2013-09-28 03:00:00,
2013-09-27 20:45:00,60.0,59.0,-100.00,SSW,193,4.0,11.0,97,-99.99,,,0.00,0.000000,,2013-09-28 03:45:00,
2013-09-27 20:55:00,60.0,59.0,-100.00,SSW,193,4.0,11.0,97,-99.99,,,0.00,0.000000,,2013-09-28 03:55:00,
2013-09-27 21:00:00,60.0,59.0,-100.00,SSW,194,5.0,13.0,99,-99.99,,,0.00,0.000000,,2013-09-28 04:00:00,
2013-09-27 21:43:00,60.0,59.0,-100.00,SSW,194,5.0,13.0,99,-99.99,,,0.00,0.000000,,2013-09-28 04:43:00,
2013-09-27 21:54:00,60.0,59.0,-100.00,SSW,194,5.0,13.0,99,-99.99,,,0.00,0.000000,,2013-09-28 04:54:00,
2013-09-27 22:00:00,59.0,59.0,-100.00,SSW,194,6.0,15.0,100,-99.99,,,0.00,0.000000,,2013-09-28 05:00:00,
2013-09-27 22:43:00,59.0,59.0,-100.00,SSW,194,6.0,15.0,100,-99.99,,,0.00,0.000000,,2013-09-28 05:43:00,
2013-09-27 22:53:00,59.0,59.0,-100.00,SSW,194,6.0,15.0,100,-99.99,,,0.00,0.000000,,2013-09-28 05:53:00,
2013-09-27 23:00:00,59.0,59.0,-100.00,SSW,196,5.0,14.0,100,-99.99,,,0.00,0.000000,,2013-09-28 06:00:00,
2013-09-27 23:42:00,59.0,59.0,-100.00,SSW,196,5.0,14.0,100,-99.99,,,0.00,0.000000,,2013-09-28 06:42:00,
2013-09-27 23:52:00,59.0,59.0,-100.00,SSW,196,5.0,14.0,100,-99.99,,,0.00,0.000000,,2013-09-28 06:52:00,